createdAt,value
2018-10-16T00:00:25.404Z,6.40
2018-10-16T00:01:25.358Z,7.00
2018-10-16T00:02:25.310Z,6.50
2018-10-16T00:03:25.286Z,6.40
2018-10-16T00:04:25.207Z,6.50
2018-10-16T00:05:25.160Z,6.70
2018-10-16T00:06:25.108Z,6.90
2018-10-16T00:07:25.059Z,6.70
2018-10-16T00:08:25.030Z,6.50
2018-10-16T00:09:24.958Z,6.60
2018-10-16T00:10:24.909Z,7.00
2018-10-16T00:11:24.863Z,6.70
2018-10-16T00:12:24.814Z,6.80
2018-10-16T00:13:24.786Z,6.60
2018-10-16T00:14:24.711Z,6.50
2018-10-16T00:15:24.663Z,6.60
2018-10-16T00:16:24.608Z,6.60
2018-10-16T00:17:24.569Z,6.30
2018-10-16T00:18:24.536Z,6.40
2018-10-16T00:19:24.467Z,6.70
2018-10-16T00:20:24.422Z,6.90
2018-10-16T00:21:24.369Z,6.40
2018-10-16T00:22:24.315Z,6.70
2018-10-16T00:23:24.288Z,7.10
2018-10-16T00:24:24.212Z,6.40
2018-10-16T00:25:24.167Z,6.70
2018-10-16T00:26:24.124Z,6.40
2018-10-16T00:27:24.066Z,6.70
2018-10-16T00:28:24.037Z,6.70
2018-10-16T00:29:23.970Z,6.90
2018-10-16T00:30:23.917Z,6.80
2018-10-16T00:31:23.872Z,6.60
2018-10-16T00:32:23.870Z,6.50
2018-10-16T00:33:23.805Z,6.70
2018-10-16T00:34:23.716Z,6.50
2018-10-16T00:35:23.677Z,6.40
2018-10-16T00:36:23.619Z,6.00
2018-10-16T00:37:23.573Z,6.60
2018-10-16T00:38:23.521Z,6.30
2018-10-16T00:39:23.495Z,6.40
2018-10-16T00:40:23.418Z,6.50
2018-10-16T00:41:23.374Z,6.70
2018-10-16T00:42:23.318Z,6.60
2018-10-16T00:43:23.276Z,6.50
2018-10-16T00:44:23.238Z,6.50
2018-10-16T00:45:23.170Z,7.20
2018-10-16T00:46:23.123Z,6.40
2018-10-16T00:47:23.071Z,6.80
2018-10-16T00:48:23.021Z,6.40
2018-10-16T00:49:23.010Z,6.70
2018-10-16T00:50:22.924Z,6.90
2018-10-16T00:51:22.871Z,7.00
2018-10-16T00:52:22.824Z,6.70
2018-10-16T00:53:22.773Z,6.60
2018-10-16T00:54:22.753Z,6.80
2018-10-16T00:55:22.681Z,6.50
2018-10-16T00:56:22.626Z,6.50
2018-10-16T00:57:22.574Z,6.40
2018-10-16T00:58:22.530Z,6.60
2018-10-16T00:59:22.501Z,6.80
2018-10-16T01:00:22.423Z,7.20
2018-10-16T01:01:22.378Z,6.90
2018-10-16T01:02:22.328Z,6.90
2018-10-16T01:03:22.276Z,7.00
2018-10-16T01:04:22.250Z,6.90
2018-10-16T01:05:22.183Z,7.10
2018-10-16T01:06:22.134Z,6.50
2018-10-16T01:07:22.083Z,6.80
2018-10-16T01:08:22.033Z,6.90
2018-10-16T01:09:22.004Z,7.00
2018-10-16T01:10:21.934Z,6.30
2018-10-16T01:11:21.879Z,6.90
2018-10-16T01:12:21.832Z,6.90
2018-10-16T01:13:21.787Z,7.00
2018-10-16T01:14:21.764Z,6.90
2018-10-16T01:15:21.678Z,6.90
2018-10-16T01:16:21.629Z,7.00
2018-10-16T01:17:21.583Z,7.10
2018-10-16T01:18:21.535Z,7.50
2018-10-16T01:19:21.482Z,7.10
2018-10-16T01:20:21.462Z,7.20
2018-10-16T01:21:21.386Z,7.10
2018-10-16T01:22:21.331Z,7.00
2018-10-16T01:23:21.282Z,6.90
2018-10-16T01:24:21.233Z,6.90
2018-10-16T01:25:21.204Z,6.90
2018-10-16T01:26:21.135Z,6.90
2018-10-16T01:27:21.082Z,6.80
2018-10-16T01:28:21.039Z,6.80
2018-10-16T01:29:20.985Z,7.00
2018-10-16T01:30:20.960Z,6.90
2018-10-16T01:31:20.887Z,6.70
2018-10-16T01:32:20.842Z,6.90
2018-10-16T01:33:20.785Z,7.10
2018-10-16T01:34:20.740Z,6.90
2018-10-16T01:35:20.713Z,7.20
2018-10-16T01:36:20.639Z,6.60
2018-10-16T01:37:20.589Z,6.70
2018-10-16T01:38:20.537Z,6.90
2018-10-16T01:39:20.486Z,6.50
2018-10-16T01:40:20.462Z,6.70
2018-10-16T01:41:20.390Z,7.60
2018-10-16T01:42:20.338Z,7.50
2018-10-16T01:43:20.289Z,7.20
2018-10-16T01:44:20.238Z,7.10
2018-10-16T01:45:20.215Z,7.30
2018-10-16T01:46:20.140Z,7.10
2018-10-16T01:47:20.090Z,7.70
2018-10-16T01:48:20.040Z,7.20
2018-10-16T01:49:19.993Z,7.00
2018-10-16T01:50:19.963Z,6.90
2018-10-16T01:51:19.919Z,6.90
2018-10-16T01:52:19.844Z,7.10
2018-10-16T01:53:19.791Z,7.00
2018-10-16T01:54:19.742Z,6.70
2018-10-16T01:55:19.689Z,6.50
2018-10-16T01:56:19.666Z,6.60
2018-10-16T01:57:19.592Z,6.60
2018-10-16T01:58:19.546Z,6.60
2018-10-16T01:59:19.490Z,6.60
2018-10-16T02:00:19.442Z,7.00
2018-10-16T02:01:19.415Z,6.50
2018-10-16T02:02:19.342Z,7.00
2018-10-16T02:03:19.295Z,7.50
2018-10-16T02:04:19.245Z,6.80
2018-10-16T02:05:19.195Z,6.60
2018-10-16T02:06:19.168Z,6.70
2018-10-16T02:07:19.098Z,7.40
2018-10-16T02:08:19.046Z,6.70
2018-10-16T02:09:18.995Z,6.90
2018-10-16T02:10:18.950Z,7.20
2018-10-16T02:11:18.922Z,6.70
2018-10-16T02:12:18.846Z,6.80
2018-10-16T02:13:18.802Z,6.70
2018-10-16T02:14:18.751Z,6.80
2018-10-16T02:15:18.697Z,7.20
2018-10-16T02:16:18.673Z,6.80
2018-10-16T02:17:18.601Z,6.70
2018-10-16T02:18:18.561Z,6.50
2018-10-16T02:19:18.512Z,7.00
2018-10-16T02:20:18.451Z,7.40
2018-10-16T02:21:18.423Z,6.90
2018-10-16T02:22:18.354Z,6.90
2018-10-16T02:23:18.304Z,6.50
2018-10-16T02:24:18.255Z,6.90
2018-10-16T02:25:18.201Z,6.90
2018-10-16T02:26:18.179Z,6.80
2018-10-16T02:27:18.106Z,7.50
2018-10-16T02:28:18.055Z,7.20
2018-10-16T02:29:18.028Z,6.90
2018-10-16T02:30:17.953Z,7.10
2018-10-16T02:31:17.929Z,6.90
2018-10-16T02:32:17.860Z,6.70
2018-10-16T02:33:17.807Z,6.80
2018-10-16T02:34:17.757Z,6.90
2018-10-16T02:35:17.713Z,6.70
2018-10-16T02:36:17.683Z,7.20
2018-10-16T02:37:17.607Z,6.60
2018-10-16T02:38:17.573Z,6.90
2018-10-16T02:39:17.511Z,6.90
2018-10-16T02:40:17.460Z,7.00
2018-10-16T02:41:17.444Z,6.60
2018-10-16T02:42:17.361Z,6.80
2018-10-16T02:43:17.309Z,7.00
2018-10-16T02:44:17.260Z,6.80
2018-10-16T02:45:17.215Z,6.80
2018-10-16T02:46:17.192Z,7.00
2018-10-16T02:47:17.127Z,7.20
2018-10-16T02:48:17.074Z,6.70
2018-10-16T02:49:17.013Z,7.20
2018-10-16T02:50:16.973Z,6.90
2018-10-16T02:51:16.946Z,6.90
2018-10-16T02:52:16.893Z,7.20
2018-10-16T02:53:16.816Z,6.80
2018-10-16T02:54:16.767Z,6.80
2018-10-16T02:55:16.718Z,6.90
2018-10-16T02:56:16.679Z,6.60
2018-10-16T02:57:16.643Z,6.30
2018-10-16T02:58:16.567Z,6.50
2018-10-16T02:59:16.520Z,6.70
2018-10-16T03:00:16.471Z,6.60
2018-10-16T03:01:16.423Z,6.30
2018-10-16T03:02:16.394Z,6.20
2018-10-16T03:03:16.326Z,6.50
2018-10-16T03:04:16.272Z,6.00
2018-10-16T03:05:16.224Z,6.40
2018-10-16T03:06:16.175Z,6.60
2018-10-16T03:07:16.146Z,6.40
2018-10-16T03:08:16.076Z,6.80
2018-10-16T03:09:16.026Z,6.60
2018-10-16T03:10:15.972Z,6.70
2018-10-16T03:11:15.928Z,6.70
2018-10-16T03:12:15.902Z,6.30
2018-10-16T03:13:15.829Z,6.60
2018-10-16T03:14:15.783Z,6.40
2018-10-16T03:15:15.728Z,6.40
2018-10-16T03:16:15.680Z,6.70
2018-10-16T03:17:15.654Z,6.80
2018-10-16T03:18:15.581Z,6.30
2018-10-16T03:19:15.531Z,6.60
2018-10-16T03:20:15.518Z,6.70
2018-10-16T03:21:15.434Z,6.20
2018-10-16T03:22:15.405Z,7.10
2018-10-16T03:23:15.334Z,6.40
2018-10-16T03:24:15.287Z,6.50
2018-10-16T03:25:15.237Z,6.60
2018-10-16T03:26:15.187Z,6.80
2018-10-16T03:27:15.160Z,6.50
2018-10-16T03:28:15.088Z,6.70
2018-10-16T03:29:15.038Z,6.90
2018-10-16T03:30:14.990Z,6.70
2018-10-16T03:31:14.950Z,6.80
2018-10-16T03:32:14.909Z,6.60
2018-10-16T03:33:14.840Z,6.80
2018-10-16T03:34:14.789Z,6.70
2018-10-16T03:35:14.740Z,6.50
2018-10-16T03:36:14.698Z,6.60
2018-10-16T03:37:14.664Z,6.60
2018-10-16T03:38:14.594Z,6.80
2018-10-16T03:39:14.545Z,6.50
2018-10-16T03:40:14.500Z,6.90
2018-10-16T03:41:14.442Z,6.70
2018-10-16T03:42:14.427Z,6.70
2018-10-16T03:43:14.343Z,6.70
2018-10-16T03:44:14.298Z,6.50
2018-10-16T03:45:14.251Z,6.60
2018-10-16T03:46:14.196Z,6.70
2018-10-16T03:47:14.178Z,6.80
2018-10-16T03:48:14.098Z,6.60
2018-10-16T03:49:14.051Z,7.20
2018-10-16T03:50:14.003Z,6.90
2018-10-16T03:51:13.953Z,6.90
2018-10-16T03:52:13.927Z,6.50
2018-10-16T03:53:13.852Z,6.60
2018-10-16T03:54:13.803Z,6.50
2018-10-16T03:55:13.751Z,6.50
2018-10-16T03:56:13.704Z,6.20
2018-10-16T03:57:13.716Z,6.50
2018-10-16T03:58:13.607Z,6.30
2018-10-16T03:59:13.562Z,6.50
2018-10-16T04:00:13.512Z,6.50
2018-10-16T04:01:13.457Z,6.40
2018-10-16T04:02:13.445Z,6.20
2018-10-16T04:03:13.373Z,6.30
2018-10-16T04:04:13.310Z,6.70
2018-10-16T04:05:13.269Z,6.60
2018-10-16T04:06:13.211Z,7.00
2018-10-16T04:07:13.167Z,7.00
2018-10-16T04:08:13.140Z,6.60
2018-10-16T04:09:13.064Z,6.70
2018-10-16T04:10:13.012Z,6.50
2018-10-16T04:11:12.971Z,6.60
2018-10-16T04:12:12.919Z,6.90
2018-10-16T04:13:12.895Z,6.80
2018-10-16T04:14:12.823Z,6.50
2018-10-16T04:15:12.771Z,6.50
2018-10-16T04:16:12.721Z,6.40
2018-10-16T04:17:12.661Z,6.90
2018-10-16T04:18:12.633Z,6.40
2018-10-16T04:19:12.560Z,6.50
2018-10-16T04:20:12.511Z,6.20
2018-10-16T04:21:12.462Z,6.40
2018-10-16T04:22:12.461Z,6.80
2018-10-16T04:23:12.388Z,6.50
2018-10-16T04:24:12.312Z,6.40
2018-10-16T04:25:12.263Z,6.90
2018-10-16T04:26:12.218Z,6.60
2018-10-16T04:27:12.175Z,6.90
2018-10-16T04:28:12.139Z,6.50
2018-10-16T04:29:12.171Z,7.00
2018-10-16T04:30:12.017Z,6.70
2018-10-16T04:31:11.972Z,6.90
2018-10-16T04:32:11.920Z,6.60
2018-10-16T04:33:11.895Z,7.10
2018-10-16T04:34:11.839Z,6.80
2018-10-16T04:35:11.772Z,7.00
2018-10-16T04:36:11.722Z,6.60
2018-10-16T04:37:11.672Z,7.10
2018-10-16T04:38:11.648Z,7.20
2018-10-16T04:39:11.573Z,6.70
2018-10-16T04:40:11.523Z,6.80
2018-10-16T04:41:11.478Z,6.80
2018-10-16T04:42:11.427Z,7.00
2018-10-16T04:43:11.402Z,6.70
2018-10-16T04:44:11.332Z,7.20
2018-10-16T04:45:11.276Z,6.40
2018-10-16T04:46:11.232Z,6.70
2018-10-16T04:47:11.182Z,7.00
2018-10-16T04:48:11.155Z,6.80
2018-10-16T04:49:11.081Z,6.90
2018-10-16T04:50:11.029Z,7.00
2018-10-16T04:51:10.979Z,6.90
2018-10-16T04:52:10.933Z,7.00
2018-10-16T04:53:10.909Z,7.50
2018-10-16T04:54:10.834Z,7.20
2018-10-16T04:55:10.858Z,6.90
2018-10-16T04:56:10.736Z,7.60
2018-10-16T04:57:10.684Z,7.60
2018-10-16T04:58:10.663Z,7.30
2018-10-16T04:59:10.584Z,7.00
2018-10-16T05:00:10.540Z,7.20
2018-10-16T05:01:10.489Z,7.20
2018-10-16T05:02:10.441Z,6.90
2018-10-16T05:03:10.415Z,7.30
2018-10-16T05:04:10.427Z,7.80
2018-10-16T05:05:10.294Z,7.20
2018-10-16T05:06:10.248Z,7.10
2018-10-16T05:07:10.195Z,6.80
2018-10-16T05:08:10.170Z,7.10
2018-10-16T05:09:10.094Z,7.00
2018-10-16T05:10:10.045Z,7.10
2018-10-16T05:11:09.996Z,7.60
2018-10-16T05:12:09.944Z,7.30
2018-10-16T05:13:09.976Z,7.80
2018-10-16T05:14:09.852Z,7.60
2018-10-16T05:15:09.803Z,7.70
2018-10-16T05:16:09.747Z,7.50
2018-10-16T05:17:09.698Z,7.40
2018-10-16T05:18:09.684Z,7.30
2018-10-16T05:19:09.675Z,7.40
2018-10-16T05:20:09.550Z,7.30
2018-10-16T05:21:10.065Z,7.00
2018-10-16T05:22:09.452Z,7.20
2018-10-16T05:23:09.428Z,7.50
2018-10-16T05:24:09.356Z,7.40
2018-10-16T05:25:09.308Z,7.70
2018-10-16T05:26:09.256Z,7.50
2018-10-16T05:27:09.228Z,7.50
2018-10-16T05:28:09.195Z,7.60
2018-10-16T05:29:09.106Z,7.10
2018-10-16T05:30:09.055Z,7.30
2018-10-16T05:31:09.069Z,6.70
2018-10-16T05:32:08.959Z,7.10
2018-10-16T05:33:08.918Z,7.20
2018-10-16T05:34:08.885Z,7.00
2018-10-16T05:35:08.811Z,7.50
2018-10-16T05:36:08.761Z,7.30
2018-10-16T05:37:08.709Z,7.50
2018-10-16T05:38:08.661Z,7.20
2018-10-16T05:39:08.701Z,7.20
2018-10-16T05:40:08.564Z,7.50
2018-10-16T05:41:08.513Z,7.00
2018-10-16T05:42:08.464Z,6.90
2018-10-16T05:43:08.417Z,7.30
2018-10-16T05:44:08.390Z,7.60
2018-10-16T05:45:08.344Z,7.30
2018-10-16T05:46:08.264Z,7.40
2018-10-16T05:47:08.220Z,6.90
2018-10-16T05:48:08.166Z,7.00
2018-10-16T05:49:08.142Z,7.20
2018-10-16T05:50:08.069Z,7.10
2018-10-16T05:51:08.018Z,7.10
2018-10-16T05:52:07.978Z,7.60
2018-10-16T05:53:07.919Z,6.90
2018-10-16T05:54:07.898Z,7.10
2018-10-16T05:55:07.820Z,7.00
2018-10-16T05:56:07.783Z,7.50
2018-10-16T05:57:07.739Z,7.50
2018-10-16T05:58:07.675Z,7.60
2018-10-16T05:59:07.647Z,7.40
2018-10-16T06:00:07.576Z,7.10
2018-10-16T06:01:07.527Z,7.30
2018-10-16T06:02:07.474Z,7.50
2018-10-16T06:03:07.429Z,6.90
2018-10-16T06:04:07.400Z,7.00
2018-10-16T06:05:07.328Z,7.30
2018-10-16T06:06:07.279Z,7.40
2018-10-16T06:07:07.230Z,7.60
2018-10-16T06:08:07.179Z,7.40
2018-10-16T06:09:07.152Z,6.90
2018-10-16T06:10:07.078Z,7.70
2018-10-16T06:11:07.026Z,7.40
2018-10-16T06:12:06.983Z,7.60
2018-10-16T06:13:06.934Z,7.90
2018-10-16T06:14:06.919Z,8.00
2018-10-16T06:15:06.838Z,7.80
2018-10-16T06:16:06.873Z,7.50
2018-10-16T06:17:06.732Z,7.60
2018-10-16T06:18:06.689Z,8.00
2018-10-16T06:19:06.636Z,8.40
2018-10-16T06:20:06.606Z,7.40
2018-10-16T06:21:06.538Z,7.60
2018-10-16T06:22:06.487Z,7.40
2018-10-16T06:23:06.442Z,7.50
2018-10-16T06:24:06.384Z,7.70
2018-10-16T06:25:06.369Z,7.50
2018-10-16T06:26:06.290Z,8.20
2018-10-16T06:27:06.239Z,8.50
2018-10-16T06:28:06.190Z,8.10
2018-10-16T06:29:06.143Z,8.20
2018-10-16T06:30:06.190Z,8.60
2018-10-16T06:31:06.047Z,8.10
2018-10-16T06:32:06.003Z,7.50
2018-10-16T06:33:05.985Z,7.40
2018-10-16T06:34:05.899Z,7.80
2018-10-16T06:35:05.864Z,7.40
2018-10-16T06:36:05.792Z,8.10
2018-10-16T06:37:05.743Z,8.30
2018-10-16T06:38:05.699Z,7.70
2018-10-16T06:39:05.649Z,8.00
2018-10-16T06:40:05.616Z,8.30
2018-10-16T06:41:05.758Z,7.60
2018-10-16T06:42:05.500Z,7.60
2018-10-16T06:43:05.450Z,8.20
2018-10-16T06:44:05.403Z,8.00
2018-10-16T06:45:05.381Z,7.70
2018-10-16T06:46:05.302Z,7.70
2018-10-16T06:47:05.283Z,7.80
2018-10-16T06:48:05.364Z,8.00
2018-10-16T06:49:05.156Z,7.90
2018-10-16T06:50:05.127Z,7.80
2018-10-16T06:51:05.052Z,8.20
2018-10-16T06:52:05.009Z,7.90
2018-10-16T06:53:05.006Z,8.10
2018-10-16T06:54:04.910Z,7.80
2018-10-16T06:55:04.961Z,7.50
2018-10-16T06:56:04.808Z,8.10
2018-10-16T06:57:04.767Z,8.50
2018-10-16T06:58:04.715Z,8.40
2018-10-16T06:59:04.665Z,7.80
2018-10-16T07:00:04.676Z,8.10
2018-10-16T07:01:04.564Z,8.00
2018-10-16T07:02:04.514Z,8.00
2018-10-16T07:03:04.465Z,8.40
2018-10-16T07:04:04.444Z,8.10
2018-10-16T07:05:04.407Z,7.90
2018-10-16T07:06:04.336Z,8.00
2018-10-16T07:07:04.385Z,7.90
2018-10-16T07:08:04.219Z,8.10
2018-10-16T07:09:04.170Z,8.00
2018-10-16T07:10:04.120Z,8.40
2018-10-16T07:11:04.098Z,8.50
2018-10-16T07:12:04.025Z,8.30
2018-10-16T07:13:03.974Z,8.00
2018-10-16T07:14:03.931Z,8.30
2018-10-16T07:15:03.956Z,8.00
2018-10-16T07:16:03.850Z,7.80
2018-10-16T07:17:03.778Z,8.10
2018-10-16T07:18:03.731Z,8.00
2018-10-16T07:19:03.681Z,8.00
2018-10-16T07:20:03.635Z,8.20
2018-10-16T07:21:03.649Z,8.40
2018-10-16T07:22:03.534Z,8.30
2018-10-16T07:23:03.491Z,8.80
2018-10-16T07:24:03.558Z,8.70
2018-10-16T07:25:03.384Z,8.40
2018-10-16T07:26:03.364Z,8.50
2018-10-16T07:27:03.288Z,8.10
2018-10-16T07:28:03.250Z,8.00
2018-10-16T07:29:03.244Z,8.30
2018-10-16T07:30:03.178Z,8.20
2018-10-16T07:31:03.117Z,8.80
2018-10-16T07:32:03.042Z,9.40
2018-10-16T07:33:02.995Z,8.70
2018-10-16T07:34:02.948Z,8.30
2018-10-16T07:35:02.901Z,8.30
2018-10-16T07:36:02.894Z,8.00
2018-10-16T07:37:02.801Z,8.00
2018-10-16T07:38:02.902Z,7.90
2018-10-16T07:39:02.831Z,8.00
2018-10-16T07:40:02.661Z,8.60
2018-10-16T07:41:02.606Z,8.20
2018-10-16T07:42:02.584Z,8.40
2018-10-16T07:43:02.509Z,8.10
2018-10-16T07:44:02.466Z,7.80
2018-10-16T07:45:02.409Z,7.50
2018-10-16T07:46:02.365Z,7.70
2018-10-16T07:47:02.338Z,8.00
2018-10-16T07:48:02.265Z,8.10
2018-10-16T07:49:02.214Z,7.80
2018-10-16T07:50:02.170Z,7.70
2018-10-16T07:51:02.144Z,7.30
2018-10-16T07:52:02.089Z,7.60
2018-10-16T07:53:02.022Z,7.90
2018-10-16T07:54:01.973Z,7.90
2018-10-16T07:55:01.925Z,7.40
2018-10-16T07:56:01.878Z,7.70
2018-10-16T07:57:01.855Z,7.70
2018-10-16T07:58:01.783Z,7.50
2018-10-16T07:59:01.731Z,7.20
2018-10-16T08:00:01.695Z,7.20
2018-10-16T08:01:01.631Z,7.30
2018-10-16T08:02:01.610Z,7.40
2018-10-16T08:03:01.538Z,7.90
2018-10-16T08:04:01.490Z,7.60
2018-10-16T08:05:01.438Z,7.50
2018-10-16T08:06:01.393Z,7.30
2018-10-16T08:07:01.376Z,7.50
2018-10-16T08:08:01.303Z,7.80
2018-10-16T08:09:01.256Z,7.60
2018-10-16T08:10:01.206Z,7.30
2018-10-16T08:11:01.148Z,7.00
2018-10-16T08:12:01.101Z,7.30
2018-10-16T08:13:01.076Z,7.40
2018-10-16T08:14:01.005Z,7.20
2018-10-16T08:15:00.955Z,7.60
2018-10-16T08:16:00.906Z,7.70
2018-10-16T08:17:00.885Z,7.50
2018-10-16T08:18:00.836Z,7.70
2018-10-16T08:19:00.764Z,7.60
2018-10-16T08:20:00.712Z,7.30
2018-10-16T08:21:00.664Z,8.00
2018-10-16T08:22:00.612Z,8.20
2018-10-16T08:23:00.591Z,7.50
2018-10-16T08:24:00.525Z,8.00
2018-10-16T08:25:00.473Z,7.60
2018-10-16T08:26:00.426Z,7.60
2018-10-16T08:27:00.401Z,7.30
2018-10-16T08:28:00.349Z,7.40
2018-10-16T08:29:00.276Z,7.70
2018-10-16T08:30:00.323Z,7.10
2018-10-16T08:31:00.192Z,7.20
2018-10-16T08:32:00.136Z,7.30
2018-10-16T08:33:00.109Z,7.70
2018-10-16T08:34:00.042Z,7.90
2018-10-16T08:34:59.993Z,7.50
2018-10-16T08:35:59.976Z,6.80
2018-10-16T08:37:00.045Z,7.20
2018-10-16T08:37:59.875Z,7.70
2018-10-16T08:38:59.796Z,7.60
2018-10-16T08:39:59.748Z,8.40
2018-10-16T08:40:59.705Z,7.90
2018-10-16T08:41:59.739Z,7.80
2018-10-16T08:42:59.630Z,8.10
2018-10-16T08:43:59.556Z,7.30
2018-10-16T08:44:59.534Z,7.30
2018-10-16T08:45:59.462Z,7.20
2018-10-16T08:46:59.414Z,7.90
2018-10-16T08:47:59.385Z,7.40
2018-10-16T08:48:59.315Z,7.20
2018-10-16T08:49:59.271Z,7.90
2018-10-16T08:50:59.218Z,8.10
2018-10-16T08:51:59.173Z,8.00
2018-10-16T08:52:59.162Z,7.70
2018-10-16T08:53:59.079Z,7.80
2018-10-16T08:54:59.069Z,7.80
2018-10-16T08:55:58.982Z,7.70
2018-10-16T08:56:58.932Z,7.70
2018-10-16T08:57:58.883Z,7.60
2018-10-16T08:58:58.879Z,7.90
2018-10-16T08:59:58.790Z,7.30
2018-10-16T09:00:58.740Z,8.20
2018-10-16T09:01:58.699Z,8.60
2018-10-16T09:02:58.645Z,8.30
2018-10-16T09:03:58.623Z,8.50
2018-10-16T09:04:58.551Z,8.00
2018-10-16T09:05:58.503Z,8.80
2018-10-16T09:06:58.453Z,7.80
2018-10-16T09:07:58.409Z,8.90
2018-10-16T09:08:58.381Z,8.80
2018-10-16T09:09:58.313Z,8.80
2018-10-16T09:10:58.264Z,9.40
2018-10-16T09:11:58.213Z,8.80
2018-10-16T09:12:58.194Z,9.00
2018-10-16T09:13:58.184Z,9.00
2018-10-16T09:14:58.077Z,9.50
2018-10-16T09:15:58.029Z,9.20
2018-10-16T09:16:57.980Z,9.10
2018-10-16T09:17:57.937Z,9.20
2018-10-16T09:18:57.907Z,9.50
2018-10-16T09:19:57.835Z,9.20
2018-10-16T09:20:57.801Z,9.70
2018-10-16T09:21:57.740Z,9.10
2018-10-16T09:22:57.722Z,9.30
2018-10-16T09:23:57.856Z,9.50
2018-10-16T09:24:57.680Z,9.50
2018-10-16T09:25:57.556Z,8.90
2018-10-16T09:26:57.508Z,9.40
2018-10-16T09:27:57.459Z,9.90
2018-10-16T09:28:57.439Z,9.60
2018-10-16T09:29:57.363Z,9.70
2018-10-16T09:30:57.337Z,9.80
2018-10-16T09:31:57.268Z,9.70
2018-10-16T09:32:57.226Z,9.80
2018-10-16T09:33:57.201Z,10.00
2018-10-16T09:34:57.133Z,10.10
2018-10-16T09:35:57.082Z,10.00
2018-10-16T09:36:57.037Z,9.40
2018-10-16T09:37:56.997Z,10.30
2018-10-16T09:38:56.996Z,10.00
2018-10-16T09:39:56.898Z,9.70
2018-10-16T09:40:56.865Z,9.60
2018-10-16T09:41:56.807Z,10.00
2018-10-16T09:42:56.757Z,10.40
2018-10-16T09:43:56.705Z,10.20
2018-10-16T09:44:56.694Z,10.20
2018-10-16T09:45:56.615Z,10.60
2018-10-16T09:46:56.570Z,10.00
2018-10-16T09:47:56.525Z,9.90
2018-10-16T09:48:56.479Z,9.90
2018-10-16T09:49:56.456Z,10.00
2018-10-16T09:50:56.383Z,9.70
2018-10-16T09:51:56.344Z,9.80
2018-10-16T09:52:56.287Z,9.40
2018-10-16T09:53:56.244Z,9.80
2018-10-16T09:54:56.219Z,8.90
2018-10-16T09:55:56.146Z,9.30
2018-10-16T09:56:56.117Z,9.90
2018-10-16T09:57:56.053Z,9.70
2018-10-16T09:58:56.011Z,9.30
2018-10-16T09:59:55.989Z,10.00
2018-10-16T10:00:55.959Z,9.50
2018-10-16T10:01:55.872Z,10.20
2018-10-16T10:02:55.822Z,9.80
2018-10-16T10:03:55.776Z,9.50
2018-10-16T10:04:55.750Z,9.60
2018-10-16T10:05:55.701Z,9.10
2018-10-16T10:06:55.636Z,9.70
2018-10-16T10:07:55.589Z,9.50
2018-10-16T10:08:55.541Z,9.80
2018-10-16T10:09:55.519Z,10.50
2018-10-16T10:10:55.523Z,10.00
2018-10-16T10:11:55.406Z,9.40
2018-10-16T10:12:55.354Z,10.30
2018-10-16T10:13:55.310Z,10.10
2018-10-16T10:14:55.290Z,10.00
2018-10-16T10:15:55.215Z,9.70
2018-10-16T10:16:55.211Z,10.30
2018-10-16T10:17:55.123Z,9.70
2018-10-16T10:18:55.074Z,9.90
2018-10-16T10:19:55.053Z,10.00
2018-10-16T10:20:54.981Z,9.40
2018-10-16T10:21:54.931Z,9.50
2018-10-16T10:22:54.893Z,10.10
2018-10-16T10:23:54.839Z,10.40
2018-10-16T10:24:54.821Z,10.50
2018-10-16T10:25:54.748Z,9.60
2018-10-16T10:26:54.702Z,10.00
2018-10-16T10:27:54.656Z,9.60
2018-10-16T10:28:54.619Z,10.20
2018-10-16T10:29:54.593Z,9.70
2018-10-16T10:30:54.514Z,9.70
2018-10-16T10:31:54.468Z,9.80
2018-10-16T10:32:54.420Z,9.40
2018-10-16T10:33:54.372Z,9.30
2018-10-16T10:34:54.370Z,8.80
2018-10-16T10:35:54.279Z,9.30
2018-10-16T10:36:54.249Z,9.80
2018-10-16T10:37:54.187Z,9.90
2018-10-16T10:38:54.143Z,9.40
2018-10-16T10:39:54.095Z,9.70
2018-10-16T10:40:54.073Z,9.80
2018-10-16T10:41:54.007Z,9.80
2018-10-16T10:42:53.956Z,9.20
2018-10-16T10:43:53.911Z,9.30
2018-10-16T10:44:53.860Z,8.90
2018-10-16T10:45:54.035Z,9.20
2018-10-16T10:46:53.766Z,8.80
2018-10-16T10:47:53.723Z,9.20
2018-10-16T10:48:53.677Z,9.20
2018-10-16T10:49:53.754Z,9.80
2018-10-16T10:50:53.759Z,9.50
2018-10-16T10:51:53.535Z,9.00
2018-10-16T10:52:53.495Z,9.40
2018-10-16T10:53:53.442Z,8.60
2018-10-16T10:54:53.398Z,9.30
2018-10-16T10:55:53.383Z,9.50
2018-10-16T10:56:53.373Z,10.00
2018-10-16T10:57:53.342Z,9.60
2018-10-16T10:58:53.209Z,9.50
2018-10-16T10:59:53.468Z,9.30
2018-10-16T11:00:53.141Z,9.00
2018-10-16T11:01:53.072Z,9.40
2018-10-16T11:02:53.112Z,9.70
2018-10-16T11:03:52.980Z,9.40
2018-10-16T11:04:52.953Z,9.20
2018-10-16T11:05:52.910Z,9.30
2018-10-16T11:06:52.851Z,9.40
2018-10-16T11:07:53.238Z,9.10
2018-10-16T11:08:52.753Z,9.80
2018-10-16T11:09:52.769Z,9.30
2018-10-16T11:10:52.681Z,9.00
2018-10-16T11:11:52.614Z,9.10
2018-10-16T11:12:52.557Z,9.20
2018-10-16T11:13:52.524Z,9.70
2018-10-16T11:14:52.602Z,9.30
2018-10-16T11:15:52.442Z,9.90
2018-10-16T11:16:52.378Z,9.40
2018-10-16T11:17:52.324Z,9.40
2018-10-16T11:18:52.284Z,9.00
2018-10-16T11:19:52.235Z,8.70
2018-10-16T11:20:52.228Z,8.70
2018-10-16T11:21:52.144Z,9.90
2018-10-16T11:22:52.096Z,9.60
2018-10-16T11:23:52.050Z,9.20
2018-10-16T11:24:52.019Z,9.70
2018-10-16T11:25:51.952Z,9.50
2018-10-16T11:26:51.969Z,8.70
2018-10-16T11:27:51.861Z,9.60
2018-10-16T11:28:51.814Z,9.10
2018-10-16T11:29:51.776Z,9.10
2018-10-16T11:30:51.723Z,9.50
2018-10-16T11:31:51.733Z,9.80
2018-10-16T11:32:51.639Z,9.60
2018-10-16T11:33:51.583Z,9.70
2018-10-16T11:34:51.539Z,10.10
2018-10-16T11:35:51.494Z,9.80
2018-10-16T11:36:51.484Z,8.80
2018-10-16T11:37:51.403Z,9.40
2018-10-16T11:38:51.352Z,9.80
2018-10-16T11:39:51.307Z,10.60
2018-10-16T11:40:51.263Z,10.00
2018-10-16T11:41:51.235Z,9.40
2018-10-16T11:42:51.170Z,9.20
2018-10-16T11:43:51.123Z,9.40
2018-10-16T11:44:51.110Z,9.60
2018-10-16T11:45:51.102Z,8.80
2018-10-16T11:46:51.010Z,9.60
2018-10-16T11:47:50.937Z,8.50
2018-10-16T11:48:50.891Z,9.80
2018-10-16T11:49:50.863Z,9.70
2018-10-16T11:50:50.802Z,9.10
2018-10-16T11:51:50.778Z,9.30
2018-10-16T11:52:50.707Z,9.30
2018-10-16T11:53:50.663Z,9.60
2018-10-16T11:54:50.622Z,9.90
2018-10-16T11:55:50.584Z,10.40
2018-10-16T11:56:50.548Z,10.30
2018-10-16T11:57:50.485Z,10.50
2018-10-16T11:58:50.433Z,10.80
2018-10-16T11:59:50.386Z,10.80
2018-10-16T12:00:50.340Z,10.80
2018-10-16T12:01:50.352Z,11.00
2018-10-16T12:02:50.249Z,11.30
2018-10-16T12:03:50.205Z,10.90
2018-10-16T12:04:50.166Z,10.60
2018-10-16T12:05:50.142Z,10.20
2018-10-16T12:06:50.082Z,10.60
2018-10-16T12:07:50.069Z,10.90
2018-10-16T12:08:49.979Z,11.70
2018-10-16T12:09:49.934Z,10.90
2018-10-16T12:10:49.950Z,11.10
2018-10-16T12:11:49.838Z,11.30
2018-10-16T12:12:49.832Z,11.50
2018-10-16T12:13:49.750Z,11.40
2018-10-16T12:14:49.708Z,11.00
2018-10-16T12:15:49.658Z,11.20
2018-10-16T12:16:49.748Z,11.60
2018-10-16T12:17:49.600Z,11.20
2018-10-16T12:18:49.525Z,11.30
2018-10-16T12:19:49.531Z,11.80
2018-10-16T12:20:49.438Z,10.80
2018-10-16T12:21:49.387Z,11.00
2018-10-16T12:22:49.371Z,10.20
2018-10-16T12:23:49.316Z,10.00
2018-10-16T12:24:49.253Z,9.60
2018-10-16T12:25:49.209Z,9.80
2018-10-16T12:26:49.167Z,11.00
2018-10-16T12:27:49.138Z,10.80
2018-10-16T12:28:49.113Z,11.40
2018-10-16T12:29:49.027Z,10.90
2018-10-16T12:30:48.985Z,10.30
2018-10-16T12:31:48.933Z,10.90
2018-10-16T12:32:48.916Z,10.10
2018-10-16T12:33:48.847Z,10.90
2018-10-16T12:34:48.802Z,10.40
2018-10-16T12:35:48.755Z,10.50
2018-10-16T12:36:48.713Z,11.00
2018-10-16T12:37:48.693Z,10.20
2018-10-16T12:38:48.619Z,9.90
2018-10-16T12:39:48.692Z,9.70
2018-10-16T12:40:48.531Z,10.00
2018-10-16T12:41:48.488Z,9.50
2018-10-16T12:42:48.562Z,9.20
2018-10-16T12:43:48.443Z,8.70
2018-10-16T12:44:48.351Z,9.00
2018-10-16T12:45:48.305Z,9.30
2018-10-16T12:46:48.259Z,8.20
2018-10-16T12:47:48.213Z,8.70
2018-10-16T12:48:48.198Z,8.30
2018-10-16T12:49:48.127Z,8.90
2018-10-16T12:50:48.078Z,8.80
2018-10-16T12:51:48.036Z,8.20
2018-10-16T12:52:48.008Z,9.10
2018-10-16T12:53:47.966Z,9.40
2018-10-16T12:54:47.901Z,8.90
2018-10-16T12:55:47.855Z,8.30
2018-10-16T12:56:47.857Z,8.90
2018-10-16T12:57:47.765Z,8.90
2018-10-16T12:58:47.738Z,9.10
2018-10-16T12:59:47.676Z,8.50
2018-10-16T13:00:47.629Z,8.20
2018-10-16T13:01:47.594Z,8.80
2018-10-16T13:02:47.534Z,9.00
2018-10-16T13:03:47.517Z,9.50
2018-10-16T13:04:47.452Z,9.20
2018-10-16T13:05:47.400Z,9.80
2018-10-16T13:06:47.355Z,8.50
2018-10-16T13:07:47.311Z,9.10
2018-10-16T13:08:47.291Z,9.30
2018-10-16T13:09:47.222Z,9.10
2018-10-16T13:10:47.178Z,9.00
2018-10-16T13:11:47.132Z,9.10
2018-10-16T13:12:47.089Z,9.00
2018-10-16T13:13:47.107Z,9.10
2018-10-16T13:14:46.994Z,8.50
2018-10-16T13:15:46.951Z,9.40